Pride of Baltimore II — WUW2120 — position and weather

sailwx.info

Track history (hours):
 
Tides and Currents Weather Stations Pressure Air Temp Water Temp Dewpoint Dewpoint Depression Visibility Wind Speed Wind Dir Waves Ship Positions

Pride of Baltimore II (United States)

Reproduction of an 1812-era Baltimore Clipper privateer.

Ship's website: http://www.pride2.org/

Owner: PRIDE OF BALTIMORE INC, BALTIMORE, MD. More information available from US FCC via Universal Licensing System and Coast Guard Vessel Documentation Center.

Last reported at 2017-Jun-24 06:59 UTC. Time now 2017-Jun-24 07:14 UTC.
Position N 42°37' W 070°39'.

Type: Sailing vessel. MMSI: 303302000.

Date/timePositionNaut miles runAvg speedWind from/ knotsBaromVisibWave heightAir tempDewpointWater temp
2017-Jun-24 06:59N 42°37' W 070°39'0 0.0
2017-Jun-24 06:26N 42°37' W 070°39'0 0.0
2017-Jun-24 05:59N 42°37' W 070°39'0 0.0
2017-Jun-24 05:29N 42°37' W 070°39'0 0.0
2017-Jun-24 04:59N 42°37' W 070°39'0 0.0
2017-Jun-24 04:29N 42°37' W 070°39'0 0.0
2017-Jun-24 03:56N 42°37' W 070°39'0 0.0
2017-Jun-24 03:29N 42°37' W 070°39'0 0.0
2017-Jun-24 02:59N 42°37' W 070°39'0 0.0
2017-Jun-24 02:17N 42°37' W 070°39'0 0.0
2017-Jun-24 01:59N 42°37' W 070°39'0 0.0
2017-Jun-24 01:29N 42°37' W 070°39'0 0.0
2017-Jun-24 00:59N 42°37' W 070°39'0 0.0
2017-Jun-24 00:20N 42°37' W 070°39'0 0.0
2017-Jun-23 23:59N 42°37' W 070°39'0 0.0
2017-Jun-23 23:26N 42°37' W 070°39'0 0.0
2017-Jun-23 22:59N 42°37' W 070°39'0 0.0
2017-Jun-23 22:29N 42°37' W 070°39'0 0.0
2017-Jun-23 21:53N 42°37' W 070°39'0 0.0
2017-Jun-23 21:23N 42°37' W 070°39'0 0.0
2017-Jun-23 20:59N 42°37' W 070°39'0 0.0
2017-Jun-23 20:30N 42°37' W 070°39'0 0.0
2017-Jun-23 20:00N 42°37' W 070°39'0 0.0
2017-Jun-23 19:30N 42°37' W 070°39'0 0.0
2017-Jun-23 19:00N 42°37' W 070°39'0 0.4
2017-Jun-23 18:30N 42°36' W 070°40'3 6.6
2017-Jun-23 18:00N 42°34' W 070°42'4 7.5
2017-Jun-23 17:30N 42°31' W 070°45'4 7.1
2017-Jun-23 17:00N 42°28' W 070°48'2 4.6
2017-Jun-23 16:31N 42°26' W 070°50'2 4.5
2017-Jun-23 16:00N 42°24' W 070°52'2 3.4
2017-Jun-23 15:30N 42°23' W 070°53'2 4.5
2017-Jun-23 15:00N 42°21' W 070°55'4 3.9
2017-Jun-23 14:00N 42°21' W 071°01'2 3.2
2017-Jun-23 13:30N 42°21' W 071°03'0 0.2
2017-Jun-23 13:00N 42°21' W 071°03'0 0.0
2017-Jun-23 12:30N 42°21' W 071°03'0 0.0
2017-Jun-23 12:00N 42°21' W 071°03'0 0.0
2017-Jun-23 11:27N 42°21' W 071°03'0 0.0
2017-Jun-23 11:00N 42°21' W 071°03'0 0.0
2017-Jun-23 10:27N 42°21' W 071°03'0 0.0
2017-Jun-23 10:00N 42°21' W 071°03'0 0.0
2017-Jun-23 09:30N 42°21' W 071°03'0 0.0
2017-Jun-23 08:57N 42°21' W 071°03'0 0.0
2017-Jun-23 08:30N 42°21' W 071°03'0 0.0
2017-Jun-23 08:00N 42°21' W 071°03'0 0.0
2017-Jun-23 07:30N 42°21' W 071°03'0 0.0
2017-Jun-23 07:00N 42°21' W 071°03'0 0.0
2017-Jun-23 06:30N 42°21' W 071°03'0 0.0
2017-Jun-23 06:00N 42°21' W 071°03'0 0.0
2017-Jun-23 05:30N 42°21' W 071°03'0 0.0
2017-Jun-23 04:57N 42°21' W 071°03'0 0.0
2017-Jun-23 04:30N 42°21' W 071°03'0 0.0
2017-Jun-23 04:00N 42°21' W 071°03'0 0.0
2017-Jun-23 03:30N 42°21' W 071°03'0 0.0
2017-Jun-23 03:00N 42°21' W 071°03'0 0.0
2017-Jun-23 02:30N 42°21' W 071°03'0 0.0
2017-Jun-23 02:00N 42°21' W 071°03'0 0.0
2017-Jun-23 01:30N 42°21' W 071°03'0 0.0
2017-Jun-23 01:00N 42°21' W 071°03'0 0.0
2017-Jun-23 00:30N 42°21' W 071°03'0 0.0
2017-Jun-23 00:00N 42°21' W 071°03'1 1.4
2017-Jun-22 23:30N 42°21' W 071°02'1 1.8
2017-Jun-22 23:00N 42°22' W 071°03'0 0.9
2017-Jun-22 22:30N 42°22' W 071°03'1 1.5
2017-Jun-22 21:58N 42°21' W 071°03'0 0.0
2017-Jun-22 21:28N 42°21' W 071°03'0 0.0
2017-Jun-22 20:58N 42°21' W 071°03'0 0.0
2017-Jun-22 20:28N 42°21' W 071°03'0 0.0
2017-Jun-22 19:58N 42°21' W 071°03'0 0.0
2017-Jun-22 19:28N 42°21' W 071°03'0 0.0
2017-Jun-22 18:58N 42°21' W 071°03'0 0.0
2017-Jun-22 18:28N 42°21' W 071°03'0 0.0
2017-Jun-22 17:58N 42°21' W 071°03'0 0.0
2017-Jun-22 17:28N 42°21' W 071°03'0 0.0
2017-Jun-22 16:58N 42°21' W 071°03'0 0.0
2017-Jun-22 16:28N 42°21' W 071°03'0 0.0
2017-Jun-22 15:58N 42°21' W 071°03'0 0.0
2017-Jun-22 15:28N 42°21' W 071°03'0 0.0
2017-Jun-22 14:58N 42°21' W 071°03'0 0.0
2017-Jun-22 14:28N 42°21' W 071°03'0 0.0
2017-Jun-22 13:28N 42°21' W 071°03'0 0.0
2017-Jun-22 12:58N 42°21' W 071°03'0 0.0
2017-Jun-22 12:28N 42°21' W 071°03'0 0.0
2017-Jun-22 11:58N 42°21' W 071°03'0 0.0
2017-Jun-22 11:28N 42°21' W 071°03'0 0.0
2017-Jun-22 10:58N 42°21' W 071°03'0 0.0
2017-Jun-22 10:28N 42°21' W 071°03'0 0.0
2017-Jun-22 09:58N 42°21' W 071°03'0 0.0
2017-Jun-22 09:25N 42°21' W 071°03'0 0.0
2017-Jun-22 08:55N 42°21' W 071°03'0 0.0
2017-Jun-22 08:28N 42°21' W 071°03'0 0.0
2017-Jun-22 07:58N 42°21' W 071°03'0 0.0
2017-Jun-22 07:28N 42°21' W 071°03'0 0.0
2017-Jun-22 06:58N 42°21' W 071°03'0 0.0
2017-Jun-22 06:25N 42°21' W 071°03'0 0.0
2017-Jun-22 05:58N 42°21' W 071°03'0 0.0
2017-Jun-22 05:28N 42°21' W 071°03'0 0.0
2017-Jun-22 04:58N 42°21' W 071°03'0 0.0
2017-Jun-22 04:28N 42°21' W 071°03'0 0.0
2017-Jun-22 03:52N 42°21' W 071°03'0 0.0
2017-Jun-22 03:28N 42°21' W 071°03'0 0.0
2017-Jun-22 02:58N 42°21' W 071°03'0 0.0
2017-Jun-22 02:25N 42°21' W 071°03'0 0.0
2017-Jun-22 01:58N 42°21' W 071°03'0 0.0
2017-Jun-22 01:28N 42°21' W 071°03'0 0.0
2017-Jun-22 00:58N 42°21' W 071°03'0 0.0
2017-Jun-22 00:28N 42°21' W 071°03'0 0.0
2017-Jun-21 23:55N 42°21' W 071°03'0 0.0
2017-Jun-21 23:25N 42°21' W 071°03'0 0.0
2017-Jun-21 22:58N 42°21' W 071°03'0 0.0
2017-Jun-21 22:28N 42°21' W 071°03'0 0.0
2017-Jun-21 21:58N 42°21' W 071°03'0 0.0
2017-Jun-21 21:25N 42°21' W 071°03'0 0.0
2017-Jun-21 20:58N 42°21' W 071°03'0 0.0
2017-Jun-21 20:28N 42°21' W 071°03'0 0.0
2017-Jun-21 19:58N 42°21' W 071°03'0 0.0
2017-Jun-21 19:28N 42°21' W 071°03'0 0.0
2017-Jun-21 18:58N 42°21' W 071°03'0 0.0
2017-Jun-21 18:28N 42°21' W 071°03'0 0.0
2017-Jun-21 17:58N 42°21' W 071°03'0 0.0
2017-Jun-21 17:28N 42°21' W 071°03'0 0.0
2017-Jun-21 16:58N 42°21' W 071°03'0 0.0
2017-Jun-21 16:28N 42°21' W 071°03'0 0.0
2017-Jun-21 15:58N 42°21' W 071°03'0 0.0
2017-Jun-21 15:28N 42°21' W 071°03'0 0.0
2017-Jun-21 14:58N 42°21' W 071°03'0 0.0
2017-Jun-21 14:25N 42°21' W 071°03'0 0.0
2017-Jun-21 13:31N 42°21' W 071°03'0 0.0
2017-Jun-21 13:01N 42°21' W 071°03'0 0.0
2017-Jun-21 12:30N 42°21' W 071°03'0 0.0
2017-Jun-21 12:00N 42°21' W 071°03'0 0.0
2017-Jun-21 11:30N 42°21' W 071°03'0 0.0
2017-Jun-21 11:00N 42°21' W 071°03'0 0.0
2017-Jun-21 10:30N 42°21' W 071°03'0 0.0
2017-Jun-21 10:00N 42°21' W 071°03'0 0.0
2017-Jun-21 09:30N 42°21' W 071°03'0 0.0
2017-Jun-21 08:57N 42°21' W 071°03'0 0.0
2017-Jun-21 08:30N 42°21' W 071°03'0 0.0
2017-Jun-21 08:00N 42°21' W 071°03'0 0.0
2017-Jun-21 07:30N 42°21' W 071°03'0 0.0
2017-Jun-21 06:57N 42°21' W 071°03'0 0.0
2017-Jun-21 06:27N 42°21' W 071°03'0 0.0
2017-Jun-21 06:00N 42°21' W 071°03'0 0.0
2017-Jun-21 05:30N 42°21' W 071°03'0 0.0
2017-Jun-21 04:54N 42°21' W 071°03'0 0.0
2017-Jun-21 04:30N 42°21' W 071°03'0 0.0
2017-Jun-21 04:00N 42°21' W 071°03'0 0.0
2017-Jun-21 03:30N 42°21' W 071°03'0 0.0
2017-Jun-21 03:00N 42°21' W 071°03'0 0.0
2017-Jun-21 02:30N 42°21' W 071°03'0 0.0
2017-Jun-21 02:00N 42°21' W 071°03'0 0.0
2017-Jun-21 01:30N 42°21' W 071°03'0 0.0
2017-Jun-21 01:00N 42°21' W 071°03'0 0.0
2017-Jun-21 00:27N 42°21' W 071°03'0 0.0
2017-Jun-20 23:57N 42°21' W 071°03'0 0.0
2017-Jun-20 23:30N 42°21' W 071°03'0 0.0
2017-Jun-20 23:00N 42°21' W 071°03'0 0.0
2017-Jun-20 22:30N 42°21' W 071°03'0 0.0
2017-Jun-20 22:00N 42°21' W 071°03'0 0.0
2017-Jun-20 21:27N 42°21' W 071°03'0 0.0
2017-Jun-20 21:00N 42°21' W 071°03'0 0.0
2017-Jun-20 20:30N 42°21' W 071°03'0 0.0
2017-Jun-20 19:57N 42°21' W 071°03'0 0.0
2017-Jun-20 19:30N 42°21' W 071°03'0 0.0
2017-Jun-20 19:00N 42°21' W 071°03'0 0.0
2017-Jun-20 18:27N 42°21' W 071°03'0 0.0
2017-Jun-20 18:00N 42°21' W 071°03'0 0.0
2017-Jun-20 17:30N 42°21' W 071°03'0 0.0
2017-Jun-20 17:00N 42°21' W 071°03'0 0.0
2017-Jun-20 16:30N 42°21' W 071°03'0 0.0
2017-Jun-20 16:00N 42°21' W 071°03'0 0.0
2017-Jun-20 15:30N 42°21' W 071°03'0 0.0
2017-Jun-20 15:00N 42°21' W 071°03'0 0.0
2017-Jun-20 14:30N 42°21' W 071°03'0 0.0
2017-Jun-20 13:30N 42°21' W 071°03'0 0.0
2017-Jun-20 13:00N 42°21' W 071°03'0 0.0
2017-Jun-20 12:30N 42°21' W 071°03'0 0.0
2017-Jun-20 12:00N 42°21' W 071°03'0 0.0
2017-Jun-20 11:30N 42°21' W 071°03'0 0.0
2017-Jun-20 11:00N 42°21' W 071°03'0 0.0
2017-Jun-20 10:30N 42°21' W 071°03'0 0.0
2017-Jun-20 10:00N 42°21' W 071°03'0 0.0
2017-Jun-20 09:30N 42°21' W 071°03'0 0.0
2017-Jun-20 09:00N 42°21' W 071°03'0 0.0
2017-Jun-20 08:24N 42°21' W 071°03'0 0.0
2017-Jun-20 08:00N 42°21' W 071°03'0 0.0
2017-Jun-20 07:30N 42°21' W 071°03'0 0.0
2017-Jun-20 07:00N 42°21' W 071°03'0 0.0
2017-Jun-20 06:30N 42°21' W 071°03'0 0.0
2017-Jun-20 06:00N 42°21' W 071°03'0 0.0
2017-Jun-20 05:30N 42°21' W 071°03'0 0.0
2017-Jun-20 05:00N 42°21' W 071°03'0 0.0
2017-Jun-20 04:30N 42°21' W 071°03'0 0.0
2017-Jun-20 04:00N 42°21' W 071°03'0 0.0
2017-Jun-20 03:30N 42°21' W 071°03'0 0.0
2017-Jun-20 03:00N 42°21' W 071°03'0 0.0
2017-Jun-20 02:30N 42°21' W 071°03'0 0.0
2017-Jun-20 01:57N 42°21' W 071°03'0 0.0
2017-Jun-20 01:30N 42°21' W 071°03'0 0.0
2017-Jun-20 01:00N 42°21' W 071°03'0 0.0
2017-Jun-20 00:30N 42°21' W 071°03'0 0.0
2017-Jun-19 23:59N 42°21' W 071°03'0 0.0
2017-Jun-19 23:26N 42°21' W 071°03'0 0.0
2017-Jun-19 22:59N 42°21' W 071°03'0 0.0
2017-Jun-19 22:29N 42°21' W 071°03'0 0.0
2017-Jun-19 21:59N 42°21' W 071°03'0 0.0
2017-Jun-19 21:29N 42°21' W 071°03'0 0.0
2017-Jun-19 20:59N 42°21' W 071°03'0 0.0
2017-Jun-19 20:29N 42°21' W 071°03'0 0.0
2017-Jun-19 19:59N 42°21' W 071°03'0 0.0
2017-Jun-19 19:29N 42°21' W 071°03'0 0.0
2017-Jun-19 18:59N 42°21' W 071°03'0 0.0
2017-Jun-19 18:29N 42°21' W 071°03'0 0.0
2017-Jun-19 17:59N 42°21' W 071°03'0 0.0
2017-Jun-19 17:29N 42°21' W 071°03'0 0.0
2017-Jun-19 16:59N 42°21' W 071°03'0 0.0
2017-Jun-19 16:29N 42°21' W 071°03'0 0.0
2017-Jun-19 15:59N 42°21' W 071°03'0 0.0
2017-Jun-19 15:29N 42°21' W 071°03'0 0.0
2017-Jun-19 14:59N 42°21' W 071°03'0 0.0
2017-Jun-19 14:29N 42°21' W 071°03'0 0.0
2017-Jun-19 13:23N 42°21' W 071°03'0 0.0
2017-Jun-19 12:50N 42°21' W 071°03'0 0.0
2017-Jun-19 12:29N 42°21' W 071°03'0 0.0
2017-Jun-19 11:59N 42°21' W 071°03'0 0.0
2017-Jun-19 11:29N 42°21' W 071°03'0 0.0
2017-Jun-19 10:59N 42°21' W 071°03'0 0.0
2017-Jun-19 10:29N 42°21' W 071°03'0 0.0
2017-Jun-19 09:59N 42°21' W 071°03'0 0.0
2017-Jun-19 09:29N 42°21' W 071°03'0 0.0
2017-Jun-19 08:59N 42°21' W 071°03'0 0.0
2017-Jun-19 08:29N 42°21' W 071°03'0 0.0
2017-Jun-19 07:59N 42°21' W 071°03'0 0.0
2017-Jun-19 07:29N 42°21' W 071°03'0 0.0
2017-Jun-19 06:59N 42°21' W 071°03'0 0.0
2017-Jun-19 06:26N 42°21' W 071°03'0 0.0
2017-Jun-19 05:59N 42°21' W 071°03'0 0.0
2017-Jun-19 05:29N 42°21' W 071°03'0 0.0
2017-Jun-19 04:59N 42°21' W 071°03'0 0.0
2017-Jun-19 04:26N 42°21' W 071°03'0 0.0
2017-Jun-19 03:59N 42°21' W 071°03'0 0.0
2017-Jun-19 03:29N 42°21' W 071°03'0 0.0
2017-Jun-19 02:59N 42°21' W 071°03'0 0.0
2017-Jun-19 02:29N 42°21' W 071°03'0 0.0
2017-Jun-19 01:56N 42°21' W 071°03'0 0.0
2017-Jun-19 01:29N 42°21' W 071°03'0 0.0
2017-Jun-19 00:59N 42°21' W 071°03'0 0.0
2017-Jun-19 00:29N 42°21' W 071°03'0 0.0
2017-Jun-18 23:59N 42°21' W 071°03'0 0.0
2017-Jun-18 23:29N 42°21' W 071°03'0 0.0
2017-Jun-18 22:59N 42°21' W 071°03'0 0.0
2017-Jun-18 22:29N 42°21' W 071°03'0 0.0
2017-Jun-18 21:59N 42°21' W 071°03'0 0.0
2017-Jun-18 21:29N 42°21' W 071°03'0 0.0
2017-Jun-18 20:59N 42°21' W 071°03'0 0.0
2017-Jun-18 20:29N 42°21' W 071°03'0 0.0
2017-Jun-18 19:59N 42°21' W 071°03'0 0.0
2017-Jun-18 19:29N 42°21' W 071°03'0 0.0
2017-Jun-18 18:59N 42°21' W 071°03'0 0.0
2017-Jun-18 18:29N 42°21' W 071°03'0 0.0
2017-Jun-18 17:59N 42°21' W 071°03'0 0.0
2017-Jun-18 17:29N 42°21' W 071°03'0 0.0
2017-Jun-18 16:59N 42°21' W 071°03'0 0.0
2017-Jun-18 16:29N 42°21' W 071°03'0 0.0
2017-Jun-18 15:59N 42°21' W 071°03'0 0.0
2017-Jun-18 15:23N 42°21' W 071°03'0 0.0
2017-Jun-18 14:50N 42°21' W 071°03'0 0.0
2017-Jun-18 13:59N 42°21' W 071°03'0 0.0
2017-Jun-18 13:29N 42°21' W 071°03'0 0.0
2017-Jun-18 12:59N 42°21' W 071°03'0 0.0
2017-Jun-18 12:29N 42°21' W 071°03'0 0.0
2017-Jun-18 11:59N 42°21' W 071°03'0 0.0
2017-Jun-18 11:29N 42°21' W 071°03'0 0.0
2017-Jun-18 10:58N 42°21' W 071°03'0 0.0
2017-Jun-18 10:25N 42°21' W 071°03'0 0.0
2017-Jun-18 09:55N 42°21' W 071°03'0 0.0
2017-Jun-18 09:28N 42°21' W 071°03'0 0.0
2017-Jun-18 08:58N 42°21' W 071°03'0 0.0
2017-Jun-18 08:28N 42°21' W 071°03'0 0.0
2017-Jun-18 07:58N 42°21' W 071°03'0 0.0
2017-Jun-18 07:28N 42°21' W 071°03'0 0.0
2017-Jun-18 06:58N 42°21' W 071°03'0 0.0
2017-Jun-18 06:28N 42°21' W 071°03'0 0.0
2017-Jun-18 05:58N 42°21' W 071°03'0 0.0
2017-Jun-18 05:28N 42°21' W 071°03'0 0.0
2017-Jun-18 04:55N 42°21' W 071°03'0 0.0
2017-Jun-18 04:28N 42°21' W 071°03'0 0.0
2017-Jun-18 03:58N 42°21' W 071°03'0 0.0
2017-Jun-18 03:28N 42°21' W 071°03'0 0.0
2017-Jun-18 02:58N 42°21' W 071°03'0 0.0
2017-Jun-18 02:28N 42°21' W 071°03'0 0.0
2017-Jun-18 01:58N 42°21' W 071°03'0 0.0
2017-Jun-18 01:28N 42°21' W 071°03'0 0.0
2017-Jun-18 00:58N 42°21' W 071°03'0 0.0
2017-Jun-18 00:28N 42°21' W 071°03'0 0.0
2017-Jun-17 23:58N 42°21' W 071°03'0 0.0
2017-Jun-17 23:28N 42°21' W 071°03'0 0.0
2017-Jun-17 22:58N 42°21' W 071°03'0 0.0
2017-Jun-17 22:28N 42°21' W 071°03'0 0.0
2017-Jun-17 21:55N 42°21' W 071°03'0 0.0
2017-Jun-17 21:28N 42°21' W 071°03'0 0.0
2017-Jun-17 20:52N 42°21' W 071°03'0 0.0
2017-Jun-17 20:28N 42°21' W 071°03'0 0.0
2017-Jun-17 19:58N 42°21' W 071°03'0 0.0
2017-Jun-17 19:28N 42°21' W 071°03'0 0.0
2017-Jun-17 18:58N 42°21' W 071°03'0 0.0
2017-Jun-17 18:28N 42°21' W 071°03'0 0.0
2017-Jun-17 17:58N 42°21' W 071°03'0 0.0
2017-Jun-17 17:28N 42°21' W 071°03'0 0.2
2017-Jun-17 17:00N 42°21' W 071°03'1 1.3
2017-Jun-17 16:30N 42°22' W 071°03'2 4.5
2017-Jun-17 16:00N 42°21' W 071°01'3 5.5
2017-Jun-17 15:30N 42°20' W 070°57'3 5.6
2017-Jun-17 15:00N 42°23' W 070°54'3 2.6
2017-Jun-17 14:00N 42°25' W 070°52'0 0.9
2017-Jun-17 13:30N 42°25' W 070°53'0 0.5
2017-Jun-17 13:01N 42°25' W 070°53'0 0.2
2017-Jun-17 12:30N 42°25' W 070°53'3 6.7
2017-Jun-17 12:00N 42°22' W 070°55'3 6.9
2017-Jun-17 11:30N 42°20' W 070°59'3 5.6
2017-Jun-17 11:00N 42°21' W 071°03'0 0.0
2017-Jun-17 10:30N 42°21' W 071°03'0 0.0
2017-Jun-17 10:00N 42°21' W 071°03'0 0.0
2017-Jun-17 09:27N 42°21' W 071°03'0 0.0
2017-Jun-17 08:56N 42°21' W 071°03'0 0.0
2017-Jun-17 08:29N 42°21' W 071°03'0 0.0
2017-Jun-17 07:56N 42°21' W 071°03'0 0.0
2017-Jun-17 07:23N 42°21' W 071°03'0 0.0
2017-Jun-17 06:59N 42°21' W 071°03'0 0.0
2017-Jun-17 06:29N 42°21' W 071°03'0 0.0
2017-Jun-17 05:56N 42°21' W 071°03'0 0.0
2017-Jun-17 05:29N 42°21' W 071°03'0 0.0
2017-Jun-17 04:56N 42°21' W 071°03'0 0.0
2017-Jun-17 04:26N 42°21' W 071°03'0 0.0
2017-Jun-17 03:59N 42°21' W 071°03'0 0.0
2017-Jun-17 03:29N 42°21' W 071°03'0 0.0
2017-Jun-17 02:56N 42°21' W 071°03'0 0.0
2017-Jun-17 02:29N 42°21' W 071°03'0 0.0
2017-Jun-17 01:56N 42°21' W 071°03'0 0.0
2017-Jun-17 01:26N 42°21' W 071°03'0 0.0
2017-Jun-17 00:56N 42°21' W 071°03'0 0.0
2017-Jun-17 00:26N 42°21' W 071°03'0 0.0
2017-Jun-16 23:56N 42°21' W 071°03'0 0.0
2017-Jun-16 23:26N 42°21' W 071°03'0 0.0
2017-Jun-16 22:56N 42°21' W 071°03'0 0.0
2017-Jun-16 22:26N 42°21' W 071°03'0 0.0
2017-Jun-16 21:50N 42°21' W 071°03'0 0.0
2017-Jun-16 21:26N 42°21' W 071°03'0 0.0
2017-Jun-16 20:56N 42°21' W 071°03'0 0.0
2017-Jun-16 20:26N 42°21' W 071°03'0 0.0
2017-Jun-16 19:59N 42°21' W 071°03'0 0.0
2017-Jun-16 19:26N 42°21' W 071°03'0 0.0
2017-Jun-16 18:59N 42°21' W 071°03'0 0.0
2017-Jun-16 18:29N 42°21' W 071°03'0 0.0
2017-Jun-16 17:56N 42°21' W 071°03'0 0.0
2017-Jun-16 17:29N 42°21' W 071°03'0 0.0
2017-Jun-16 16:59N 42°21' W 071°03'0 0.0
2017-Jun-16 16:26N 42°21' W 071°03'0 0.0
2017-Jun-16 15:59N 42°21' W 071°03'0 0.0
2017-Jun-16 15:26N 42°21' W 071°03'0 0.0
2017-Jun-16 14:56N 42°21' W 071°03'0 0.0
2017-Jun-16 13:59N 42°21' W 071°03'0 0.0
2017-Jun-16 13:29N 42°21' W 071°03'0 0.0
2017-Jun-16 12:59N 42°21' W 071°03'0 0.0
2017-Jun-16 12:26N 42°21' W 071°03'0 0.0
2017-Jun-16 11:59N 42°21' W 071°03'0 0.0
2017-Jun-16 11:29N 42°21' W 071°03'0 0.0
2017-Jun-16 10:59N 42°21' W 071°03'0 0.0
2017-Jun-16 10:26N 42°21' W 071°03'0 0.0
2017-Jun-16 09:59N 42°21' W 071°03'0 0.0
2017-Jun-16 09:26N 42°21' W 071°03'0 0.0
2017-Jun-16 08:56N 42°21' W 071°03'0 0.0
2017-Jun-16 08:29N 42°21' W 071°03'0 0.0
2017-Jun-16 07:56N 42°21' W 071°03'0 0.0
2017-Jun-16 07:29N 42°21' W 071°03'0 0.0
2017-Jun-16 06:59N 42°21' W 071°03'0 0.0
2017-Jun-16 06:26N 42°21' W 071°03'0 0.0
2017-Jun-16 05:59N 42°21' W 071°03'0 0.0
2017-Jun-16 05:26N 42°21' W 071°03'0 0.0
2017-Jun-16 04:59N 42°21' W 071°03'0 0.0
2017-Jun-16 04:26N 42°21' W 071°03'0 0.0
2017-Jun-16 03:56N 42°21' W 071°03'0 0.0
2017-Jun-16 03:29N 42°21' W 071°03'0 0.0
2017-Jun-16 02:56N 42°21' W 071°03'0 0.0
2017-Jun-16 02:26N 42°21' W 071°03'0 0.0
2017-Jun-16 01:59N 42°21' W 071°03'0 0.0
2017-Jun-16 01:29N 42°21' W 071°03'0 0.0
2017-Jun-16 00:59N 42°21' W 071°03'0 0.0
2017-Jun-16 00:29N 42°21' W 071°03'0 0.0
2017-Jun-15 23:59N 42°21' W 071°03'0 0.0
2017-Jun-15 23:29N 42°21' W 071°03'0 0.0
2017-Jun-15 22:56N 42°21' W 071°03'0 0.0
2017-Jun-15 22:29N 42°21' W 071°03'0 0.0
2017-Jun-15 21:59N 42°21' W 071°03'0 0.0
2017-Jun-15 21:29N 42°21' W 071°03'0 0.0
2017-Jun-15 20:59N 42°21' W 071°03'0 0.0
2017-Jun-15 20:29N 42°21' W 071°03'0 0.0
2017-Jun-15 19:56N 42°21' W 071°03'0 0.0
2017-Jun-15 19:26N 42°21' W 071°03'0 0.0
2017-Jun-15 18:59N 42°21' W 071°03'0 0.0
2017-Jun-15 18:26N 42°21' W 071°03'0 0.0
2017-Jun-15 17:59N 42°21' W 071°03'0 0.0
2017-Jun-15 17:29N 42°21' W 071°03'0 0.0
2017-Jun-15 16:59N 42°21' W 071°03'0 0.0
2017-Jun-15 16:26N 42°21' W 071°03'0 0.0
2017-Jun-15 15:56N 42°21' W 071°03'0 0.0
2017-Jun-15 15:20N 42°21' W 071°03'0 0.0
2017-Jun-15 14:59N 42°21' W 071°03'0 0.0
2017-Jun-15 13:59N 42°21' W 071°03'0 0.0
2017-Jun-15 13:26N 42°21' W 071°03'0 0.0
2017-Jun-15 12:59N 42°21' W 071°03'0 0.0
2017-Jun-15 12:29N 42°21' W 071°03'0 0.0
2017-Jun-15 11:59N 42°21' W 071°03'0 0.0
2017-Jun-15 11:29N 42°21' W 071°03'0 0.0
2017-Jun-15 10:59N 42°21' W 071°03'0 0.0
2017-Jun-15 10:29N 42°21' W 071°03'0 0.0
2017-Jun-15 09:59N 42°21' W 071°03'0 0.0
2017-Jun-15 09:26N 42°21' W 071°03'0 0.0
2017-Jun-15 08:59N 42°21' W 071°03'0 0.0
2017-Jun-15 08:29N 42°21' W 071°03'0 0.0
2017-Jun-15 07:59N 42°21' W 071°03'0 0.0
2017-Jun-15 07:29N 42°21' W 071°03'0 0.0
2017-Jun-15 06:59N 42°21' W 071°03'0 0.0
2017-Jun-15 06:29N 42°21' W 071°03'0 0.0
2017-Jun-15 05:59N 42°21' W 071°03'0 0.0
2017-Jun-15 05:26N 42°21' W 071°03'0 0.0
2017-Jun-15 04:59N 42°21' W 071°03'0 0.0
2017-Jun-15 04:29N 42°21' W 071°03'0 0.0
2017-Jun-15 03:59N 42°21' W 071°03'0 0.0
2017-Jun-15 03:26N 42°21' W 071°03'0 0.0
2017-Jun-15 02:56N 42°21' W 071°03'0 0.0
2017-Jun-15 02:29N 42°21' W 071°03'0 0.0
2017-Jun-15 01:56N 42°21' W 071°03'0 0.0
2017-Jun-15 01:29N 42°21' W 071°03'0 0.0
2017-Jun-15 00:59N 42°21' W 071°03'0 0.0
2017-Jun-15 00:29N 42°21' W 071°03'0 0.0
2017-Jun-14 23:59N 42°21' W 071°03'0 0.0
2017-Jun-14 23:29N 42°21' W 071°03'0 0.0
2017-Jun-14 22:59N 42°21' W 071°03'0 0.0
2017-Jun-14 22:26N 42°21' W 071°03'0 0.0
2017-Jun-14 22:00N 42°21' W 071°03'1 2.9
2017-Jun-14 21:30N 42°21' W 071°01'3 6.5
2017-Jun-14 21:00N 42°21' W 070°56'3 6.5
2017-Jun-14 20:30N 42°24' W 070°54'3 6.8
2017-Jun-14 20:00N 42°26' W 070°51'3 6.4
2017-Jun-14 19:30N 42°29' W 070°50'3 6.2
2017-Jun-14 19:00N 42°32' W 070°50'2 4.4
2017-Jun-14 18:31N 42°31' W 070°53'0 0.1
2017-Jun-14 17:59N 42°31' W 070°53'0 0.0
2017-Jun-14 17:29N 42°31' W 070°53'0 0.0
2017-Jun-14 16:59N 42°31' W 070°53'1 1.1
2017-Jun-14 16:30N 42°31' W 070°52'0 0.1
2017-Jun-14 16:00N 42°31' W 070°52'0 0.1
2017-Jun-14 15:30N 42°31' W 070°52'0 0.2
2017-Jun-14 14:58N 42°31' W 070°52'0 0.0
2017-Jun-14 13:58N 42°31' W 070°52'0 0.0
2017-Jun-14 13:28N 42°31' W 070°52'0 0.0
2017-Jun-14 13:01N 42°31' W 070°52'0 0.0
2017-Jun-14 12:25N 42°31' W 070°52'0 0.1
2017-Jun-14 12:01N 42°31' W 070°52'0 0.0
2017-Jun-14 11:31N 42°31' W 070°52'0 0.0
2017-Jun-14 11:00N 42°31' W 070°52'0 0.0
2017-Jun-14 10:27N 42°31' W 070°52'0 0.0
2017-Jun-14 09:54N 42°31' W 070°52'0 0.0
2017-Jun-14 09:30N 42°31' W 070°52'  
Track history (hours):
 
Tides and Currents Weather Stations Pressure Air Temp Water Temp Dewpoint Dewpoint Depression Visibility Wind Speed Wind Dir Waves Ship Positions

Pride of Baltimore II (United States)

Reproduction of an 1812-era Baltimore Clipper privateer.

Ship's website: http://www.pride2.org/

Owner: PRIDE OF BALTIMORE INC, BALTIMORE, MD. More information available from US FCC via Universal Licensing System and Coast Guard Vessel Documentation Center.

Last reported at 2017-Jun-24 06:59 UTC. Time now 2017-Jun-24 07:14 UTC.
Position N 42°37' W 070°39'.

Type: Sailing vessel. MMSI: 303302000.

Date/timePositionNaut miles runAvg speedWind from/ knotsBaromVisibWave heightAir tempDewpointWater temp
2017-Jun-24 06:59N 42°37' W 070°39'0 0.0
2017-Jun-24 06:26N 42°37' W 070°39'0 0.0
2017-Jun-24 05:59N 42°37' W 070°39'0 0.0
2017-Jun-24 05:29N 42°37' W 070°39'0 0.0
2017-Jun-24 04:59N 42°37' W 070°39'0 0.0
2017-Jun-24 04:29N 42°37' W 070°39'0 0.0
2017-Jun-24 03:56N 42°37' W 070°39'0 0.0
2017-Jun-24 03:29N 42°37' W 070°39'0 0.0
2017-Jun-24 02:59N 42°37' W 070°39'0 0.0
2017-Jun-24 02:17N 42°37' W 070°39'0 0.0
2017-Jun-24 01:59N 42°37' W 070°39'0 0.0
2017-Jun-24 01:29N 42°37' W 070°39'0 0.0
2017-Jun-24 00:59N 42°37' W 070°39'0 0.0
2017-Jun-24 00:20N 42°37' W 070°39'0 0.0
2017-Jun-23 23:59N 42°37' W 070°39'0 0.0
2017-Jun-23 23:26N 42°37' W 070°39'0 0.0
2017-Jun-23 22:59N 42°37' W 070°39'0 0.0
2017-Jun-23 22:29N 42°37' W 070°39'0 0.0
2017-Jun-23 21:53N 42°37' W 070°39'0 0.0
2017-Jun-23 21:23N 42°37' W 070°39'0 0.0
2017-Jun-23 20:59N 42°37' W 070°39'0 0.0
2017-Jun-23 20:30N 42°37' W 070°39'0 0.0
2017-Jun-23 20:00N 42°37' W 070°39'0 0.0
2017-Jun-23 19:30N 42°37' W 070°39'0 0.0
2017-Jun-23 19:00N 42°37' W 070°39'0 0.4
2017-Jun-23 18:30N 42°36' W 070°40'3 6.6
2017-Jun-23 18:00N 42°34' W 070°42'4 7.5
2017-Jun-23 17:30N 42°31' W 070°45'4 7.1
2017-Jun-23 17:00N 42°28' W 070°48'2 4.6
2017-Jun-23 16:31N 42°26' W 070°50'2 4.5
2017-Jun-23 16:00N 42°24' W 070°52'2 3.4
2017-Jun-23 15:30N 42°23' W 070°53'2 4.5
2017-Jun-23 15:00N 42°21' W 070°55'4 3.9
2017-Jun-23 14:00N 42°21' W 071°01'2 3.2
2017-Jun-23 13:30N 42°21' W 071°03'0 0.2
2017-Jun-23 13:00N 42°21' W 071°03'0 0.0
2017-Jun-23 12:30N 42°21' W 071°03'0 0.0
2017-Jun-23 12:00N 42°21' W 071°03'0 0.0
2017-Jun-23 11:27N 42°21' W 071°03'0 0.0
2017-Jun-23 11:00N 42°21' W 071°03'0 0.0
2017-Jun-23 10:27N 42°21' W 071°03'0 0.0
2017-Jun-23 10:00N 42°21' W 071°03'0 0.0
2017-Jun-23 09:30N 42°21' W 071°03'0 0.0
2017-Jun-23 08:57N 42°21' W 071°03'0 0.0
2017-Jun-23 08:30N 42°21' W 071°03'0 0.0
2017-Jun-23 08:00N 42°21' W 071°03'0 0.0
2017-Jun-23 07:30N 42°21' W 071°03'0 0.0
2017-Jun-23 07:00N 42°21' W 071°03'0 0.0
2017-Jun-23 06:30N 42°21' W 071°03'0 0.0
2017-Jun-23 06:00N 42°21' W 071°03'0 0.0
2017-Jun-23 05:30N 42°21' W 071°03'0 0.0
2017-Jun-23 04:57N 42°21' W 071°03'0 0.0
2017-Jun-23 04:30N 42°21' W 071°03'0 0.0
2017-Jun-23 04:00N 42°21' W 071°03'0 0.0
2017-Jun-23 03:30N 42°21' W 071°03'0 0.0
2017-Jun-23 03:00N 42°21' W 071°03'0 0.0
2017-Jun-23 02:30N 42°21' W 071°03'0 0.0
2017-Jun-23 02:00N 42°21' W 071°03'0 0.0
2017-Jun-23 01:30N 42°21' W 071°03'0 0.0
2017-Jun-23 01:00N 42°21' W 071°03'0 0.0
2017-Jun-23 00:30N 42°21' W 071°03'0 0.0
2017-Jun-23 00:00N 42°21' W 071°03'1 1.4
2017-Jun-22 23:30N 42°21' W 071°02'1 1.8
2017-Jun-22 23:00N 42°22' W 071°03'0 0.9
2017-Jun-22 22:30N 42°22' W 071°03'1 1.5
2017-Jun-22 21:58N 42°21' W 071°03'0 0.0
2017-Jun-22 21:28N 42°21' W 071°03'0 0.0
2017-Jun-22 20:58N 42°21' W 071°03'0 0.0
2017-Jun-22 20:28N 42°21' W 071°03'0 0.0
2017-Jun-22 19:58N 42°21' W 071°03'0 0.0
2017-Jun-22 19:28N 42°21' W 071°03'0 0.0
2017-Jun-22 18:58N 42°21' W 071°03'0 0.0
2017-Jun-22 18:28N 42°21' W 071°03'0 0.0
2017-Jun-22 17:58N 42°21' W 071°03'0 0.0
2017-Jun-22 17:28N 42°21' W 071°03'0 0.0
2017-Jun-22 16:58N 42°21' W 071°03'0 0.0
2017-Jun-22 16:28N 42°21' W 071°03'0 0.0
2017-Jun-22 15:58N 42°21' W 071°03'0 0.0
2017-Jun-22 15:28N 42°21' W 071°03'0 0.0
2017-Jun-22 14:58N 42°21' W 071°03'0 0.0
2017-Jun-22 14:28N 42°21' W 071°03'0 0.0
2017-Jun-22 13:28N 42°21' W 071°03'0 0.0
2017-Jun-22 12:58N 42°21' W 071°03'0 0.0
2017-Jun-22 12:28N 42°21' W 071°03'0 0.0
2017-Jun-22 11:58N 42°21' W 071°03'0 0.0
2017-Jun-22 11:28N 42°21' W 071°03'0 0.0
2017-Jun-22 10:58N 42°21' W 071°03'0 0.0
2017-Jun-22 10:28N 42°21' W 071°03'0 0.0
2017-Jun-22 09:58N 42°21' W 071°03'0 0.0
2017-Jun-22 09:25N 42°21' W 071°03'0 0.0
2017-Jun-22 08:55N 42°21' W 071°03'0 0.0
2017-Jun-22 08:28N 42°21' W 071°03'0 0.0
2017-Jun-22 07:58N 42°21' W 071°03'0 0.0
2017-Jun-22 07:28N 42°21' W 071°03'0 0.0
2017-Jun-22 06:58N 42°21' W 071°03'0 0.0
2017-Jun-22 06:25N 42°21' W 071°03'0 0.0
2017-Jun-22 05:58N 42°21' W 071°03'0 0.0
2017-Jun-22 05:28N 42°21' W 071°03'0 0.0
2017-Jun-22 04:58N 42°21' W 071°03'0 0.0
2017-Jun-22 04:28N 42°21' W 071°03'0 0.0
2017-Jun-22 03:52N 42°21' W 071°03'0 0.0
2017-Jun-22 03:28N 42°21' W 071°03'0 0.0
2017-Jun-22 02:58N 42°21' W 071°03'0 0.0
2017-Jun-22 02:25N 42°21' W 071°03'0 0.0
2017-Jun-22 01:58N 42°21' W 071°03'0 0.0
2017-Jun-22 01:28N 42°21' W 071°03'0 0.0
2017-Jun-22 00:58N 42°21' W 071°03'0 0.0
2017-Jun-22 00:28N 42°21' W 071°03'0 0.0
2017-Jun-21 23:55N 42°21' W 071°03'0 0.0
2017-Jun-21 23:25N 42°21' W 071°03'0 0.0
2017-Jun-21 22:58N 42°21' W 071°03'0 0.0
2017-Jun-21 22:28N 42°21' W 071°03'0 0.0
2017-Jun-21 21:58N 42°21' W 071°03'0 0.0
2017-Jun-21 21:25N 42°21' W 071°03'0 0.0
2017-Jun-21 20:58N 42°21' W 071°03'0 0.0
2017-Jun-21 20:28N 42°21' W 071°03'0 0.0
2017-Jun-21 19:58N 42°21' W 071°03'0 0.0
2017-Jun-21 19:28N 42°21' W 071°03'0 0.0
2017-Jun-21 18:58N 42°21' W 071°03'0 0.0
2017-Jun-21 18:28N 42°21' W 071°03'0 0.0
2017-Jun-21 17:58N 42°21' W 071°03'0 0.0
2017-Jun-21 17:28N 42°21' W 071°03'0 0.0
2017-Jun-21 16:58N 42°21' W 071°03'0 0.0
2017-Jun-21 16:28N 42°21' W 071°03'0 0.0
2017-Jun-21 15:58N 42°21' W 071°03'0 0.0
2017-Jun-21 15:28N 42°21' W 071°03'0 0.0
2017-Jun-21 14:58N 42°21' W 071°03'0 0.0
2017-Jun-21 14:25N 42°21' W 071°03'0 0.0
2017-Jun-21 13:31N 42°21' W 071°03'0 0.0
2017-Jun-21 13:01N 42°21' W 071°03'0 0.0
2017-Jun-21 12:30N 42°21' W 071°03'0 0.0
2017-Jun-21 12:00N 42°21' W 071°03'0 0.0
2017-Jun-21 11:30N 42°21' W 071°03'0 0.0
2017-Jun-21 11:00N 42°21' W 071°03'0 0.0
2017-Jun-21 10:30N 42°21' W 071°03'0 0.0
2017-Jun-21 10:00N 42°21' W 071°03'0 0.0
2017-Jun-21 09:30N 42°21' W 071°03'0 0.0
2017-Jun-21 08:57N 42°21' W 071°03'0 0.0
2017-Jun-21 08:30N 42°21' W 071°03'0 0.0
2017-Jun-21 08:00N 42°21' W 071°03'0 0.0
2017-Jun-21 07:30N 42°21' W 071°03'0 0.0
2017-Jun-21 06:57N 42°21' W 071°03'0 0.0
2017-Jun-21 06:27N 42°21' W 071°03'0 0.0
2017-Jun-21 06:00N 42°21' W 071°03'0 0.0
2017-Jun-21 05:30N 42°21' W 071°03'0 0.0
2017-Jun-21 04:54N 42°21' W 071°03'0 0.0
2017-Jun-21 04:30N 42°21' W 071°03'0 0.0
2017-Jun-21 04:00N 42°21' W 071°03'0 0.0
2017-Jun-21 03:30N 42°21' W 071°03'0 0.0
2017-Jun-21 03:00N 42°21' W 071°03'0 0.0
2017-Jun-21 02:30N 42°21' W 071°03'0 0.0
2017-Jun-21 02:00N 42°21' W 071°03'0 0.0
2017-Jun-21 01:30N 42°21' W 071°03'0 0.0
2017-Jun-21 01:00N 42°21' W 071°03'0 0.0
2017-Jun-21 00:27N 42°21' W 071°03'0 0.0
2017-Jun-20 23:57N 42°21' W 071°03'0 0.0
2017-Jun-20 23:30N 42°21' W 071°03'0 0.0
2017-Jun-20 23:00N 42°21' W 071°03'0 0.0
2017-Jun-20 22:30N 42°21' W 071°03'0 0.0
2017-Jun-20 22:00N 42°21' W 071°03'0 0.0
2017-Jun-20 21:27N 42°21' W 071°03'0 0.0
2017-Jun-20 21:00N 42°21' W 071°03'0 0.0
2017-Jun-20 20:30N 42°21' W 071°03'0 0.0
2017-Jun-20 19:57N 42°21' W 071°03'0 0.0
2017-Jun-20 19:30N 42°21' W 071°03'0 0.0
2017-Jun-20 19:00N 42°21' W 071°03'0 0.0
2017-Jun-20 18:27N 42°21' W 071°03'0 0.0
2017-Jun-20 18:00N 42°21' W 071°03'0 0.0
2017-Jun-20 17:30N 42°21' W 071°03'0 0.0
2017-Jun-20 17:00N 42°21' W 071°03'0 0.0
2017-Jun-20 16:30N 42°21' W 071°03'0 0.0
2017-Jun-20 16:00N 42°21' W 071°03'0 0.0
2017-Jun-20 15:30N 42°21' W 071°03'0 0.0
2017-Jun-20 15:00N 42°21' W 071°03'0 0.0
2017-Jun-20 14:30N 42°21' W 071°03'0 0.0
2017-Jun-20 13:30N 42°21' W 071°03'0 0.0
2017-Jun-20 13:00N 42°21' W 071°03'0 0.0
2017-Jun-20 12:30N 42°21' W 071°03'0 0.0
2017-Jun-20 12:00N 42°21' W 071°03'0 0.0
2017-Jun-20 11:30N 42°21' W 071°03'0 0.0
2017-Jun-20 11:00N 42°21' W 071°03'0 0.0
2017-Jun-20 10:30N 42°21' W 071°03'0 0.0
2017-Jun-20 10:00N 42°21' W 071°03'0 0.0
2017-Jun-20 09:30N 42°21' W 071°03'0 0.0
2017-Jun-20 09:00N 42°21' W 071°03'0 0.0
2017-Jun-20 08:24N 42°21' W 071°03'0 0.0
2017-Jun-20 08:00N 42°21' W 071°03'0 0.0
2017-Jun-20 07:30N 42°21' W 071°03'0 0.0
2017-Jun-20 07:00N 42°21' W 071°03'0 0.0
2017-Jun-20 06:30N 42°21' W 071°03'0 0.0
2017-Jun-20 06:00N 42°21' W 071°03'0 0.0
2017-Jun-20 05:30N 42°21' W 071°03'0 0.0
2017-Jun-20 05:00N 42°21' W 071°03'0 0.0
2017-Jun-20 04:30N 42°21' W 071°03'0 0.0
2017-Jun-20 04:00N 42°21' W 071°03'0 0.0
2017-Jun-20 03:30N 42°21' W 071°03'0 0.0
2017-Jun-20 03:00N 42°21' W 071°03'0 0.0
2017-Jun-20 02:30N 42°21' W 071°03'0 0.0
2017-Jun-20 01:57N 42°21' W 071°03'0 0.0
2017-Jun-20 01:30N 42°21' W 071°03'0 0.0
2017-Jun-20 01:00N 42°21' W 071°03'0 0.0
2017-Jun-20 00:30N 42°21' W 071°03'0 0.0
2017-Jun-19 23:59N 42°21' W 071°03'0 0.0
2017-Jun-19 23:26N 42°21' W 071°03'0 0.0
2017-Jun-19 22:59N 42°21' W 071°03'0 0.0
2017-Jun-19 22:29N 42°21' W 071°03'0 0.0
2017-Jun-19 21:59N 42°21' W 071°03'0 0.0
2017-Jun-19 21:29N 42°21' W 071°03'0 0.0
2017-Jun-19 20:59N 42°21' W 071°03'0 0.0
2017-Jun-19 20:29N 42°21' W 071°03'0 0.0
2017-Jun-19 19:59N 42°21' W 071°03'0 0.0
2017-Jun-19 19:29N 42°21' W 071°03'0 0.0
2017-Jun-19 18:59N 42°21' W 071°03'0 0.0
2017-Jun-19 18:29N 42°21' W 071°03'0 0.0
2017-Jun-19 17:59N 42°21' W 071°03'0 0.0
2017-Jun-19 17:29N 42°21' W 071°03'0 0.0
2017-Jun-19 16:59N 42°21' W 071°03'0 0.0
2017-Jun-19 16:29N 42°21' W 071°03'0 0.0
2017-Jun-19 15:59N 42°21' W 071°03'0 0.0
2017-Jun-19 15:29N 42°21' W 071°03'0 0.0
2017-Jun-19 14:59N 42°21' W 071°03'0 0.0
2017-Jun-19 14:29N 42°21' W 071°03'0 0.0
2017-Jun-19 13:23N 42°21' W 071°03'0 0.0
2017-Jun-19 12:50N 42°21' W 071°03'0 0.0
2017-Jun-19 12:29N 42°21' W 071°03'0 0.0
2017-Jun-19 11:59N 42°21' W 071°03'0 0.0
2017-Jun-19 11:29N 42°21' W 071°03'0 0.0
2017-Jun-19 10:59N 42°21' W 071°03'0 0.0
2017-Jun-19 10:29N 42°21' W 071°03'0 0.0
2017-Jun-19 09:59N 42°21' W 071°03'0 0.0
2017-Jun-19 09:29N 42°21' W 071°03'0 0.0
2017-Jun-19 08:59N 42°21' W 071°03'0 0.0
2017-Jun-19 08:29N 42°21' W 071°03'0 0.0
2017-Jun-19 07:59N 42°21' W 071°03'0 0.0
2017-Jun-19 07:29N 42°21' W 071°03'0 0.0
2017-Jun-19 06:59N 42°21' W 071°03'0 0.0
2017-Jun-19 06:26N 42°21' W 071°03'0 0.0
2017-Jun-19 05:59N 42°21' W 071°03'0 0.0
2017-Jun-19 05:29N 42°21' W 071°03'0 0.0
2017-Jun-19 04:59N 42°21' W 071°03'0 0.0
2017-Jun-19 04:26N 42°21' W 071°03'0 0.0
2017-Jun-19 03:59N 42°21' W 071°03'0 0.0
2017-Jun-19 03:29N 42°21' W 071°03'0 0.0
2017-Jun-19 02:59N 42°21' W 071°03'0 0.0
2017-Jun-19 02:29N 42°21' W 071°03'0 0.0
2017-Jun-19 01:56N 42°21' W 071°03'0 0.0
2017-Jun-19 01:29N 42°21' W 071°03'0 0.0
2017-Jun-19 00:59N 42°21' W 071°03'0 0.0
2017-Jun-19 00:29N 42°21' W 071°03'0 0.0
2017-Jun-18 23:59N 42°21' W 071°03'0 0.0
2017-Jun-18 23:29N 42°21' W 071°03'0 0.0
2017-Jun-18 22:59N 42°21' W 071°03'0 0.0
2017-Jun-18 22:29N 42°21' W 071°03'0 0.0
2017-Jun-18 21:59N 42°21' W 071°03'0 0.0
2017-Jun-18 21:29N 42°21' W 071°03'0 0.0
2017-Jun-18 20:59N 42°21' W 071°03'0 0.0
2017-Jun-18 20:29N 42°21' W 071°03'0 0.0
2017-Jun-18 19:59N 42°21' W 071°03'0 0.0
2017-Jun-18 19:29N 42°21' W 071°03'0 0.0
2017-Jun-18 18:59N 42°21' W 071°03'0 0.0
2017-Jun-18 18:29N 42°21' W 071°03'0 0.0
2017-Jun-18 17:59N 42°21' W 071°03'0 0.0
2017-Jun-18 17:29N 42°21' W 071°03'0 0.0
2017-Jun-18 16:59N 42°21' W 071°03'0 0.0
2017-Jun-18 16:29N 42°21' W 071°03'0 0.0
2017-Jun-18 15:59N 42°21' W 071°03'0 0.0
2017-Jun-18 15:23N 42°21' W 071°03'0 0.0
2017-Jun-18 14:50N 42°21' W 071°03'0 0.0
2017-Jun-18 13:59N 42°21' W 071°03'0 0.0
2017-Jun-18 13:29N 42°21' W 071°03'0 0.0
2017-Jun-18 12:59N 42°21' W 071°03'0 0.0
2017-Jun-18 12:29N 42°21' W 071°03'0 0.0
2017-Jun-18 11:59N 42°21' W 071°03'0 0.0
2017-Jun-18 11:29N 42°21' W 071°03'0 0.0
2017-Jun-18 10:58N 42°21' W 071°03'0 0.0
2017-Jun-18 10:25N 42°21' W 071°03'0 0.0
2017-Jun-18 09:55N 42°21' W 071°03'0 0.0
2017-Jun-18 09:28N 42°21' W 071°03'0 0.0
2017-Jun-18 08:58N 42°21' W 071°03'0 0.0
2017-Jun-18 08:28N 42°21' W 071°03'0 0.0
2017-Jun-18 07:58N 42°21' W 071°03'0 0.0
2017-Jun-18 07:28N 42°21' W 071°03'0 0.0
2017-Jun-18 06:58N 42°21' W 071°03'0 0.0
2017-Jun-18 06:28N 42°21' W 071°03'0 0.0
2017-Jun-18 05:58N 42°21' W 071°03'0 0.0
2017-Jun-18 05:28N 42°21' W 071°03'0 0.0
2017-Jun-18 04:55N 42°21' W 071°03'0 0.0
2017-Jun-18 04:28N 42°21' W 071°03'0 0.0
2017-Jun-18 03:58N 42°21' W 071°03'0 0.0
2017-Jun-18 03:28N 42°21' W 071°03'0 0.0
2017-Jun-18 02:58N 42°21' W 071°03'0 0.0
2017-Jun-18 02:28N 42°21' W 071°03'0 0.0
2017-Jun-18 01:58N 42°21' W 071°03'0 0.0
2017-Jun-18 01:28N 42°21' W 071°03'0 0.0
2017-Jun-18 00:58N 42°21' W 071°03'0 0.0
2017-Jun-18 00:28N 42°21' W 071°03'0 0.0
2017-Jun-17 23:58N 42°21' W 071°03'0 0.0
2017-Jun-17 23:28N 42°21' W 071°03'0 0.0
2017-Jun-17 22:58N 42°21' W 071°03'0 0.0
2017-Jun-17 22:28N 42°21' W 071°03'0 0.0
2017-Jun-17 21:55N 42°21' W 071°03'0 0.0
2017-Jun-17 21:28N 42°21' W 071°03'0 0.0
2017-Jun-17 20:52N 42°21' W 071°03'0 0.0
2017-Jun-17 20:28N 42°21' W 071°03'0 0.0
2017-Jun-17 19:58N 42°21' W 071°03'0 0.0
2017-Jun-17 19:28N 42°21' W 071°03'0 0.0
2017-Jun-17 18:58N 42°21' W 071°03'0 0.0
2017-Jun-17 18:28N 42°21' W 071°03'0 0.0
2017-Jun-17 17:58N 42°21' W 071°03'0 0.0
2017-Jun-17 17:28N 42°21' W 071°03'0 0.2
2017-Jun-17 17:00N 42°21' W 071°03'1 1.3
2017-Jun-17 16:30N 42°22' W 071°03'2 4.5
2017-Jun-17 16:00N 42°21' W 071°01'3 5.5
2017-Jun-17 15:30N 42°20' W 070°57'3 5.6
2017-Jun-17 15:00N 42°23' W 070°54'3 2.6
2017-Jun-17 14:00N 42°25' W 070°52'0 0.9
2017-Jun-17 13:30N 42°25' W 070°53'0 0.5
2017-Jun-17 13:01N 42°25' W 070°53'0 0.2
2017-Jun-17 12:30N 42°25' W 070°53'3 6.7
2017-Jun-17 12:00N 42°22' W 070°55'3 6.9
2017-Jun-17 11:30N 42°20' W 070°59'3 5.6
2017-Jun-17 11:00N 42°21' W 071°03'0 0.0
2017-Jun-17 10:30N 42°21' W 071°03'0 0.0
2017-Jun-17 10:00N 42°21' W 071°03'0 0.0
2017-Jun-17 09:27N 42°21' W 071°03'0 0.0
2017-Jun-17 08:56N 42°21' W 071°03'0 0.0
2017-Jun-17 08:29N 42°21' W 071°03'0 0.0
2017-Jun-17 07:56N 42°21' W 071°03'0 0.0
2017-Jun-17 07:23N 42°21' W 071°03'0 0.0
2017-Jun-17 06:59N 42°21' W 071°03'0 0.0
2017-Jun-17 06:29N 42°21' W 071°03'0 0.0
2017-Jun-17 05:56N 42°21' W 071°03'0 0.0
2017-Jun-17 05:29N 42°21' W 071°03'0 0.0
2017-Jun-17 04:56N 42°21' W 071°03'0 0.0
2017-Jun-17 04:26N 42°21' W 071°03'0 0.0
2017-Jun-17 03:59N 42°21' W 071°03'0 0.0
2017-Jun-17 03:29N 42°21' W 071°03'0 0.0
2017-Jun-17 02:56N 42°21' W 071°03'0 0.0
2017-Jun-17 02:29N 42°21' W 071°03'0 0.0
2017-Jun-17 01:56N 42°21' W 071°03'0 0.0
2017-Jun-17 01:26N 42°21' W 071°03'0 0.0
2017-Jun-17 00:56N 42°21' W 071°03'0 0.0
2017-Jun-17 00:26N 42°21' W 071°03'0 0.0
2017-Jun-16 23:56N 42°21' W 071°03'0 0.0
2017-Jun-16 23:26N 42°21' W 071°03'0 0.0
2017-Jun-16 22:56N 42°21' W 071°03'0 0.0
2017-Jun-16 22:26N 42°21' W 071°03'0 0.0
2017-Jun-16 21:50N 42°21' W 071°03'0 0.0
2017-Jun-16 21:26N 42°21' W 071°03'0 0.0
2017-Jun-16 20:56N 42°21' W 071°03'0 0.0
2017-Jun-16 20:26N 42°21' W 071°03'0 0.0
2017-Jun-16 19:59N 42°21' W 071°03'0 0.0
2017-Jun-16 19:26N 42°21' W 071°03'0 0.0
2017-Jun-16 18:59N 42°21' W 071°03'0 0.0
2017-Jun-16 18:29N 42°21' W 071°03'0 0.0
2017-Jun-16 17:56N 42°21' W 071°03'0 0.0
2017-Jun-16 17:29N 42°21' W 071°03'0 0.0
2017-Jun-16 16:59N 42°21' W 071°03'0 0.0
2017-Jun-16 16:26N 42°21' W 071°03'0 0.0
2017-Jun-16 15:59N 42°21' W 071°03'0 0.0
2017-Jun-16 15:26N 42°21' W 071°03'0 0.0
2017-Jun-16 14:56N 42°21' W 071°03'0 0.0
2017-Jun-16 13:59N 42°21' W 071°03'0 0.0
2017-Jun-16 13:29N 42°21' W 071°03'0 0.0
2017-Jun-16 12:59N 42°21' W 071°03'0 0.0
2017-Jun-16 12:26N 42°21' W 071°03'0 0.0
2017-Jun-16 11:59N 42°21' W 071°03'0 0.0
2017-Jun-16 11:29N 42°21' W 071°03'0 0.0
2017-Jun-16 10:59N 42°21' W 071°03'0 0.0
2017-Jun-16 10:26N 42°21' W 071°03'0 0.0
2017-Jun-16 09:59N 42°21' W 071°03'0 0.0
2017-Jun-16 09:26N 42°21' W 071°03'0 0.0
2017-Jun-16 08:56N 42°21' W 071°03'0 0.0
2017-Jun-16 08:29N 42°21' W 071°03'0 0.0
2017-Jun-16 07:56N 42°21' W 071°03'0 0.0
2017-Jun-16 07:29N 42°21' W 071°03'0 0.0
2017-Jun-16 06:59N 42°21' W 071°03'0 0.0
2017-Jun-16 06:26N 42°21' W 071°03'0 0.0
2017-Jun-16 05:59N 42°21' W 071°03'0 0.0
2017-Jun-16 05:26N 42°21' W 071°03'0 0.0
2017-Jun-16 04:59N 42°21' W 071°03'0 0.0
2017-Jun-16 04:26N 42°21' W 071°03'0 0.0
2017-Jun-16 03:56N 42°21' W 071°03'0 0.0
2017-Jun-16 03:29N 42°21' W 071°03'0 0.0
2017-Jun-16 02:56N 42°21' W 071°03'0 0.0
2017-Jun-16 02:26N 42°21' W 071°03'0 0.0
2017-Jun-16 01:59N 42°21' W 071°03'0 0.0
2017-Jun-16 01:29N 42°21' W 071°03'0 0.0
2017-Jun-16 00:59N 42°21' W 071°03'0 0.0
2017-Jun-16 00:29N 42°21' W 071°03'0 0.0
2017-Jun-15 23:59N 42°21' W 071°03'0 0.0
2017-Jun-15 23:29N 42°21' W 071°03'0 0.0
2017-Jun-15 22:56N 42°21' W 071°03'0 0.0
2017-Jun-15 22:29N 42°21' W 071°03'0 0.0
2017-Jun-15 21:59N 42°21' W 071°03'0 0.0
2017-Jun-15 21:29N 42°21' W 071°03'0 0.0
2017-Jun-15 20:59N 42°21' W 071°03'0 0.0
2017-Jun-15 20:29N 42°21' W 071°03'0 0.0
2017-Jun-15 19:56N 42°21' W 071°03'0 0.0
2017-Jun-15 19:26N 42°21' W 071°03'0 0.0
2017-Jun-15 18:59N 42°21' W 071°03'0 0.0
2017-Jun-15 18:26N 42°21' W 071°03'0 0.0
2017-Jun-15 17:59N 42°21' W 071°03'0 0.0
2017-Jun-15 17:29N 42°21' W 071°03'0 0.0
2017-Jun-15 16:59N 42°21' W 071°03'0 0.0
2017-Jun-15 16:26N 42°21' W 071°03'0 0.0
2017-Jun-15 15:56N 42°21' W 071°03'0 0.0
2017-Jun-15 15:20N 42°21' W 071°03'0 0.0
2017-Jun-15 14:59N 42°21' W 071°03'0 0.0
2017-Jun-15 13:59N 42°21' W 071°03'0 0.0
2017-Jun-15 13:26N 42°21' W 071°03'0 0.0
2017-Jun-15 12:59N 42°21' W 071°03'0 0.0
2017-Jun-15 12:29N 42°21' W 071°03'0 0.0
2017-Jun-15 11:59N 42°21' W 071°03'0 0.0
2017-Jun-15 11:29N 42°21' W 071°03'0 0.0
2017-Jun-15 10:59N 42°21' W 071°03'0 0.0
2017-Jun-15 10:29N 42°21' W 071°03'0 0.0
2017-Jun-15 09:59N 42°21' W 071°03'0 0.0
2017-Jun-15 09:26N 42°21' W 071°03'0 0.0
2017-Jun-15 08:59N 42°21' W 071°03'0 0.0
2017-Jun-15 08:29N 42°21' W 071°03'0 0.0
2017-Jun-15 07:59N 42°21' W 071°03'0 0.0
2017-Jun-15 07:29N 42°21' W 071°03'0 0.0
2017-Jun-15 06:59N 42°21' W 071°03'0 0.0
2017-Jun-15 06:29N 42°21' W 071°03'0 0.0
2017-Jun-15 05:59N 42°21' W 071°03'0 0.0
2017-Jun-15 05:26N 42°21' W 071°03'0 0.0
2017-Jun-15 04:59N 42°21' W 071°03'0 0.0
2017-Jun-15 04:29N 42°21' W 071°03'0 0.0
2017-Jun-15 03:59N 42°21' W 071°03'0 0.0
2017-Jun-15 03:26N 42°21' W 071°03'0 0.0
2017-Jun-15 02:56N 42°21' W 071°03'0 0.0
2017-Jun-15 02:29N 42°21' W 071°03'0 0.0
2017-Jun-15 01:56N 42°21' W 071°03'0 0.0
2017-Jun-15 01:29N 42°21' W 071°03'0 0.0
2017-Jun-15 00:59N 42°21' W 071°03'0 0.0
2017-Jun-15 00:29N 42°21' W 071°03'0 0.0
2017-Jun-14 23:59N 42°21' W 071°03'0 0.0
2017-Jun-14 23:29N 42°21' W 071°03'0 0.0
2017-Jun-14 22:59N 42°21' W 071°03'0 0.0
2017-Jun-14 22:26N 42°21' W 071°03'0 0.0
2017-Jun-14 22:00N 42°21' W 071°03'1 2.9
2017-Jun-14 21:30N 42°21' W 071°01'3 6.5
2017-Jun-14 21:00N 42°21' W 070°56'3 6.5
2017-Jun-14 20:30N 42°24' W 070°54'3 6.8
2017-Jun-14 20:00N 42°26' W 070°51'3 6.4
2017-Jun-14 19:30N 42°29' W 070°50'3 6.2
2017-Jun-14 19:00N 42°32' W 070°50'2 4.4
2017-Jun-14 18:31N 42°31' W 070°53'0 0.1
2017-Jun-14 17:59N 42°31' W 070°53'0 0.0
2017-Jun-14 17:29N 42°31' W 070°53'0 0.0
2017-Jun-14 16:59N 42°31' W 070°53'1 1.1
2017-Jun-14 16:30N 42°31' W 070°52'0 0.1
2017-Jun-14 16:00N 42°31' W 070°52'0 0.1
2017-Jun-14 15:30N 42°31' W 070°52'0 0.2
2017-Jun-14 14:58N 42°31' W 070°52'0 0.0
2017-Jun-14 13:58N 42°31' W 070°52'0 0.0
2017-Jun-14 13:28N 42°31' W 070°52'0 0.0
2017-Jun-14 13:01N 42°31' W 070°52'0 0.0
2017-Jun-14 12:25N 42°31' W 070°52'0 0.1
2017-Jun-14 12:01N 42°31' W 070°52'0 0.0
2017-Jun-14 11:31N 42°31' W 070°52'0 0.0
2017-Jun-14 11:00N 42°31' W 070°52'0 0.0
2017-Jun-14 10:27N 42°31' W 070°52'0 0.0
2017-Jun-14 09:54N 42°31' W 070°52'0 0.0
2017-Jun-14 09:30N 42°31' W 070°52'  

Dump ship's entire track history